Pagrindinis puslapis
METAR-TAF:

METAR-TAF

Oro uostai :

Rajahmundry, Indija

platuma: 17-06-37N, ilguma: 81-49-06E, Aukštis: 46 m

Dabartinis oras

Ataskaita buvo paskelbta 17 minutes, ne 02:30 UTC
Vėjas 5 kt iš Šiaurės/Šiaurės Rytų
Temperatūra 26°C
Drėgmė 74%
Slėgis 1015 hPa
Matomumas: 2000 m
Mažai debesys ne aukštis 2000 ft
rūkana

METAR: VORY 130230Z 02005KT 2000 BR FEW020 26/21 Q1015 BECMG 3000 BR

Laikas: 08:17 (02:47 UTC)

Prognozė

Ataskaita buvo paskelbta 47 minutes, ne 02:00 UTC
Prognozė galioja nuo 13 metu 03 UTC su 13 metu 12 UTC
Vėjas 4 kt iš Šiaurės/Šiaurės Rytų
Matomumas: 3000 m
Išsisklaidę debesys ne aukštis 1500 ft
rūkana
Laikinai
nuo 13 metu 03 UTC su 13 metu 04 UTC
Vėjas 3 kt nuo kintamojo kryptimis
Matomumas: 1500 m
Išsisklaidę debesys ne aukštis 1000 ft
Tapsmas
nuo 13 metu 04 UTC su 13 metu 06 UTC
Vėjas 10 kt iš Rytų
Matomumas: 6000 m
Mažai debesys ne aukštis 1500 ft
Išsisklaidę debesys ne aukštis 2500 ft

TAF: VORY 130200Z 1303/1312 02004KT 3000 BR SCT015 TEMPO 1303/1304 VRB03KT 1500 BE SCT010 BECMG 1304/1306 10010KT 6000 FEW015 SCT025

Orai ataskaitas ir orų prognozės (METAR, TAF).

turimą stotys yra geltonos ir raudonos taškus žemėlapyje.

Perkelti pele per norėdami pamatyti stoties vardą.

Tada spustelėkite, norėdami matyti oro stebėjimo ir prognozės.

Norėdami pakeisti žemėlapį: spustelėkite ant žalios mygtukų su juodo kryžiaus žemyn,; žalią mygtuką su brūkšneliu, jei norite nutolinti; arba žalių rodyklių gretimoms žemėlapius.


METAR-TAF: